Time;durP1;ratioP1;P1;durP2;ratioP2;P2;SDS_P1;SDS_P2;PMS_P1;PMS_P2;Temp;Humidity;BMP_temperature;BMP_pressure;BME280_temperature;BME280_humidity;BME280_pressure;Samples;Min_cycle;Max_cycle;Signal;HPM_P1;HPM_P2
2022/05/30 00:01:14;;;;;;;2.35;2.10;;;;;;;;;;5003765;28;20034;-86
2022/05/30 00:03:40;;;;;;;3.97;2.38;;;;;;;;;;4986041;28;20022;-84
2022/05/30 00:06:10;;;;;;;3.60;2.58;;;;;;;;;;4987625;28;20036;-84
2022/05/30 00:08:36;;;;;;;2.30;2.10;;;;;;;;;;5002746;28;20104;-85
2022/05/30 00:11:07;;;;;;;4.13;2.30;;;;;;;;;;5043778;23;20069;-84
2022/05/30 00:13:33;;;;;;;5.10;2.20;;;;;;;;;;5017842;28;20048;-84
2022/05/30 00:16:03;;;;;;;3.38;2.17;;;;;;;;;;5018046;28;20450;-83
2022/05/30 00:18:29;;;;;;;3.75;2.60;;;;;;;;;;5017508;28;20504;-84
2022/05/30 00:20:55;;;;;;;4.55;2.53;;;;;;;;;;5015992;28;20073;-83
2022/05/30 00:23:21;;;;;;;2.60;2.08;;;;;;;;;;5015821;28;20034;-83
2022/05/30 00:25:47;;;;;;;2.80;2.30;;;;;;;;;;5018161;28;20026;-84
2022/05/30 00:28:16;;;;;;;4.80;1.90;;;;;;;;;;5016288;28;20607;-85
2022/05/30 00:30:42;;;;;;;2.15;1.95;;;;;;;;;;5031190;28;20018;-84
2022/05/30 00:33:08;;;;;;;2.00;1.80;;;;;;;;;;5024258;28;20042;-85
2022/05/30 00:35:34;;;;;;;4.10;2.60;;;;;;;;;;5020043;28;20082;-84
2022/05/30 00:38:00;;;;;;;4.55;3.03;;;;;;;;;;5019307;28;20037;-85
2022/05/30 00:40:26;;;;;;;2.38;2.17;;;;;;;;;;5019144;28;20084;-85
2022/05/30 00:42:52;;;;;;;2.95;2.60;;;;;;;;;;5017194;28;20029;-85
2022/05/30 00:45:18;;;;;;;2.80;2.22;;;;;;;;;;5018829;28;20021;-85
2022/05/30 00:47:44;;;;;;;2.95;2.40;;;;;;;;;;5014352;28;20022;-85
2022/05/30 00:50:10;;;;;;;2.60;2.40;;;;;;;;;;5017145;28;20045;-84
2022/05/30 00:52:44;;;;;;;2.92;2.22;;;;;;;;;;5017327;28;20018;-84
2022/05/30 00:55:12;;;;;;;4.45;2.40;;;;;;;;;;5015831;28;20026;-85
2022/05/30 00:57:39;;;;;;;4.90;2.30;;;;;;;;;;5015092;28;20029;-85
2022/05/30 01:00:08;;;;;;;2.97;2.67;;;;;;;;;;5013279;28;20022;-85
2022/05/30 01:02:35;;;;;;;2.63;2.42;;;;;;;;;;5017906;28;20503;-83
2022/05/30 01:07:48;;;;;;;2.42;2.13;;;;;;;;;;5013464;28;20171;-84
2022/05/30 01:10:17;;;;;;;3.08;2.50;;;;;;;;;;5014718;28;20036;-85
2022/05/30 01:12:49;;;;;;;5.25;2.35;;;;;;;;;;5013597;28;20026;-85
2022/05/30 01:15:16;;;;;;;3.80;2.67;;;;;;;;;;5017220;28;20022;-85
2022/05/30 01:17:47;;;;;;;4.05;3.08;;;;;;;;;;5018525;28;20026;-83
2022/05/30 01:20:21;;;;;;;2.92;2.58;;;;;;;;;;5018240;28;20032;-85
2022/05/30 01:23:02;;;;;;;3.85;2.35;;;;;;;;;;5016186;28;20100;-86
2022/05/30 01:25:49;;;;;;;2.40;2.20;;;;;;;;;;5014374;28;20120;-85
2022/05/30 01:28:21;;;;;;;2.95;2.60;;;;;;;;;;5017791;28;20120;-85
2022/05/30 01:30:47;;;;;;;4.18;2.50;;;;;;;;;;5013227;28;20028;-85
2022/05/30 01:33:14;;;;;;;2.53;2.28;;;;;;;;;;5018330;28;20076;-85
2022/05/30 01:35:39;;;;;;;3.00;2.50;;;;;;;;;;5017781;28;20018;-85
2022/05/30 01:38:05;;;;;;;3.08;2.72;;;;;;;;;;5015543;28;20136;-84
2022/05/30 01:40:32;;;;;;;2.72;2.40;;;;;;;;;;5014702;28;20468;-86
2022/05/30 01:42:58;;;;;;;3.13;2.70;;;;;;;;;;5014705;28;20034;-85
2022/05/30 01:45:25;;;;;;;4.22;2.67;;;;;;;;;;5013509;28;20104;-85
2022/05/30 01:47:51;;;;;;;2.80;2.60;;;;;;;;;;5017569;28;20026;-86
2022/05/30 01:50:18;;;;;;;5.38;2.75;;;;;;;;;;5016065;28;20022;-85
2022/05/30 01:52:44;;;;;;;2.60;2.40;;;;;;;;;;5011914;28;20369;-84
2022/05/30 01:55:10;;;;;;;3.20;2.22;;;;;;;;;;5014725;28;20117;-84
2022/05/30 01:57:37;;;;;;;3.47;2.53;;;;;;;;;;5012729;28;20025;-84
2022/05/30 02:00:04;;;;;;;6.05;2.53;;;;;;;;;;5014295;28;20089;-84
2022/05/30 02:02:30;;;;;;;2.97;2.30;;;;;;;;;;5010895;28;20054;-84
2022/05/30 02:04:56;;;;;;;3.42;2.63;;;;;;;;;;5014595;28;20084;-84
2022/05/30 02:07:22;;;;;;;4.72;2.28;;;;;;;;;;5016635;28;20022;-85
2022/05/30 02:09:48;;;;;;;2.42;2.03;;;;;;;;;;5015612;28;20045;-83
2022/05/30 02:12:14;;;;;;;2.83;2.40;;;;;;;;;;5014196;28;20034;-82
2022/05/30 02:14:42;;;;;;;3.40;2.63;;;;;;;;;;5015662;28;20101;-83
2022/05/30 02:17:08;;;;;;;3.10;2.80;;;;;;;;;;5013995;28;20373;-84
2022/05/30 02:19:39;;;;;;;2.38;2.17;;;;;;;;;;5015418;28;20057;-85
2022/05/30 02:22:06;;;;;;;2.60;2.40;;;;;;;;;;5014249;28;20057;-83
2022/05/30 02:24:32;;;;;;;3.17;2.53;;;;;;;;;;5019857;28;20033;-82
2022/05/30 02:26:59;;;;;;;3.03;2.45;;;;;;;;;;5023835;28;20415;-83
2022/05/30 02:29:24;;;;;;;3.28;2.75;;;;;;;;;;5024969;28;20018;-82
2022/05/30 02:31:51;;;;;;;4.10;2.28;;;;;;;;;;5032486;28;20044;-81
2022/05/30 02:37:01;;;;;;;2.40;2.17;;;;;;;;;;5016199;28;20056;-84
2022/05/30 02:39:28;;;;;;;2.63;2.42;;;;;;;;;;5018235;28;20026;-85
2022/05/30 02:41:54;;;;;;;3.78;2.65;;;;;;;;;;5017547;28;20076;-83
2022/05/30 02:44:21;;;;;;;3.97;2.65;;;;;;;;;;5015710;28;20065;-84
2022/05/30 02:46:49;;;;;;;3.05;2.75;;;;;;;;;;5018049;28;20041;-83
2022/05/30 02:49:15;;;;;;;5.70;2.75;;;;;;;;;;5015639;28;20030;-83
2022/05/30 02:51:42;;;;;;;2.97;2.67;;;;;;;;;;5016920;28;20045;-83
2022/05/30 02:54:08;;;;;;;2.85;2.65;;;;;;;;;;5022491;28;20029;-83
2022/05/30 02:56:34;;;;;;;2.90;2.55;;;;;;;;;;5022874;28;20021;-83
2022/05/30 02:59:01;;;;;;;3.30;2.70;;;;;;;;;;5023413;28;20029;-83
2022/05/30 03:01:27;;;;;;;3.92;2.53;;;;;;;;;;5021742;28;20037;-84
2022/05/30 03:03:53;;;;;;;4.78;2.50;;;;;;;;;;5022482;28;20033;-83
2022/05/30 03:06:19;;;;;;;3.83;2.97;;;;;;;;;;5024411;28;20053;-85
2022/05/30 03:08:46;;;;;;;2.35;2.15;;;;;;;;;;5025541;28;20049;-85
2022/05/30 03:11:12;;;;;;;3.50;2.90;;;;;;;;;;5021863;28;20022;-84
2022/05/30 03:13:38;;;;;;;3.88;2.88;;;;;;;;;;5022454;28;20463;-85
2022/05/30 03:16:05;;;;;;;3.25;2.80;;;;;;;;;;5026821;28;20403;-85
2022/05/30 03:18:31;;;;;;;4.43;2.90;;;;;;;;;;5023742;28;20036;-86
2022/05/30 03:20:57;;;;;;;5.57;2.90;;;;;;;;;;5023608;28;20026;-84
2022/05/30 03:23:23;;;;;;;3.35;2.50;;;;;;;;;;5022182;28;20026;-85
2022/05/30 03:25:50;;;;;;;3.35;3.05;;;;;;;;;;5023590;28;20045;-84
2022/05/30 03:28:16;;;;;;;5.60;3.42;;;;;;;;;;5022518;28;20088;-84
2022/05/30 03:30:42;;;;;;;5.68;3.10;;;;;;;;;;5021145;28;20022;-85
2022/05/30 03:33:09;;;;;;;4.35;3.05;;;;;;;;;;5022495;28;20029;-84
2022/05/30 03:35:35;;;;;;;3.63;3.30;;;;;;;;;;5021230;28;20022;-84
2022/05/30 03:38:01;;;;;;;5.28;3.30;;;;;;;;;;5024810;28;20034;-85
2022/05/30 03:40:27;;;;;;;4.78;3.08;;;;;;;;;;5020224;28;20017;-85
2022/05/30 03:42:54;;;;;;;2.88;2.65;;;;;;;;;;5020014;28;20034;-84
2022/05/30 03:45:20;;;;;;;5.18;2.83;;;;;;;;;;5020898;28;20043;-85
2022/05/30 03:47:47;;;;;;;4.45;3.10;;;;;;;;;;5021002;28;20468;-85
2022/05/30 03:50:14;;;;;;;3.70;3.17;;;;;;;;;;5019898;28;20061;-84
2022/05/30 03:52:40;;;;;;;4.13;2.90;;;;;;;;;;5016183;28;20022;-84
2022/05/30 03:55:11;;;;;;;3.47;3.17;;;;;;;;;;5020126;28;20132;-83
2022/05/30 03:57:38;;;;;;;4.35;3.00;;;;;;;;;;5022149;28;20022;-85
2022/05/30 04:00:04;;;;;;;6.47;3.35;;;;;;;;;;5018612;28;20472;-84
2022/05/30 04:02:30;;;;;;;3.83;2.78;;;;;;;;;;5020497;28;20029;-86
2022/05/30 04:04:56;;;;;;;4.28;3.03;;;;;;;;;;5017355;28;20040;-84
2022/05/30 04:07:22;;;;;;;5.00;3.08;;;;;;;;;;5019902;28;20022;-83
2022/05/30 04:09:48;;;;;;;4.28;3.30;;;;;;;;;;5017172;28;20410;-84
2022/05/30 04:12:14;;;;;;;6.88;3.25;;;;;;;;;;5015030;28;20077;-84
2022/05/30 04:14:40;;;;;;;3.75;2.92;;;;;;;;;;5011152;28;20047;-86
2022/05/30 04:17:06;;;;;;;6.18;3.05;;;;;;;;;;5014051;28;20029;-85
2022/05/30 04:19:32;;;;;;;7.43;2.63;;;;;;;;;;5023532;28;20025;-84
2022/05/30 04:21:59;;;;;;;3.10;2.80;;;;;;;;;;5031322;28;20034;-85
2022/05/30 04:24:25;;;;;;;5.22;3.45;;;;;;;;;;5021411;28;20033;-85
2022/05/30 04:26:51;;;;;;;5.35;3.05;;;;;;;;;;5019380;28;20022;-85
2022/05/30 04:29:17;;;;;;;4.45;3.40;;;;;;;;;;5022152;28;20472;-85
2022/05/30 04:31:43;;;;;;;3.85;3.20;;;;;;;;;;5024388;28;20121;-85
2022/05/30 04:34:09;;;;;;;5.10;3.13;;;;;;;;;;5024506;28;20491;-84
2022/05/30 04:36:36;;;;;;;5.47;3.42;;;;;;;;;;5020856;28;20510;-84
2022/05/30 04:39:01;;;;;;;5.63;3.28;;;;;;;;;;5020757;28;20022;-84
2022/05/30 04:41:27;;;;;;;3.85;3.38;;;;;;;;;;5017127;28;20029;-84
2022/05/30 04:43:53;;;;;;;4.20;3.15;;;;;;;;;;5017758;28;20049;-83
2022/05/30 04:46:19;;;;;;;8.27;3.65;;;;;;;;;;5017173;28;20068;-83
2022/05/30 04:48:46;;;;;;;4.57;3.42;;;;;;;;;;5015951;28;20036;-83
2022/05/30 04:51:12;;;;;;;8.68;3.67;;;;;;;;;;4995489;28;20038;-85
2022/05/30 04:53:40;;;;;;;5.90;3.20;;;;;;;;;;4997100;28;20417;-84
2022/05/30 04:56:06;;;;;;;8.07;3.63;;;;;;;;;;4996429;28;20377;-84
2022/05/30 04:58:34;;;;;;;5.22;3.28;;;;;;;;;;4997474;28;20092;-83
2022/05/30 05:01:02;;;;;;;6.47;3.58;;;;;;;;;;4996296;28;20033;-84
2022/05/30 05:03:28;;;;;;;6.57;3.47;;;;;;;;;;5013474;28;20030;-84
2022/05/30 05:06:05;;;;;;;5.82;4.07;;;;;;;;;;5016680;28;20108;-83
2022/05/30 05:08:41;;;;;;;4.35;3.85;;;;;;;;;;5016869;28;20084;-84
2022/05/30 05:11:10;;;;;;;8.50;3.63;;;;;;;;;;5015907;28;20037;-84
2022/05/30 05:13:36;;;;;;;6.50;4.15;;;;;;;;;;5015278;28;20511;-84
2022/05/30 05:16:02;;;;;;;8.57;3.85;;;;;;;;;;5015186;28;20068;-84
2022/05/30 05:18:28;;;;;;;7.43;4.13;;;;;;;;;;5016484;28;20030;-84
2022/05/30 05:20:54;;;;;;;5.05;3.75;;;;;;;;;;5016268;28;20026;-84
2022/05/30 05:23:20;;;;;;;8.95;3.90;;;;;;;;;;5015794;28;20034;-84
2022/05/30 05:25:46;;;;;;;8.35;4.53;;;;;;;;;;5016694;28;20041;-84
2022/05/30 05:28:12;;;;;;;5.53;4.00;;;;;;;;;;5016151;28;20026;-84
2022/05/30 05:30:40;;;;;;;7.07;3.70;;;;;;;;;;5014601;28;20068;-84
2022/05/30 05:33:06;;;;;;;8.50;3.75;;;;;;;;;;5014764;28;20025;-84
2022/05/30 05:35:32;;;;;;;6.63;4.20;;;;;;;;;;5015811;28;20021;-84
2022/05/30 05:38:00;;;;;;;4.15;3.65;;;;;;;;;;5014826;28;20483;-84
2022/05/30 05:40:27;;;;;;;6.18;3.80;;;;;;;;;;5016518;28;20109;-84
2022/05/30 05:42:53;;;;;;;8.25;3.67;;;;;;;;;;5016923;28;20053;-85
2022/05/30 05:45:20;;;;;;;8.75;3.53;;;;;;;;;;5017989;28;20030;-84
2022/05/30 05:47:47;;;;;;;7.85;3.83;;;;;;;;;;5015674;28;20025;-84
2022/05/30 05:50:13;;;;;;;4.25;3.42;;;;;;;;;;5014650;28;20109;-83
2022/05/30 05:52:39;;;;;;;5.80;2.83;;;;;;;;;;5014830;28;20448;-84
2022/05/30 05:55:05;;;;;;;4.45;2.75;;;;;;;;;;5014902;28;20033;-85
2022/05/30 05:57:31;;;;;;;3.17;2.80;;;;;;;;;;5014195;28;20036;-84
2022/05/30 05:59:57;;;;;;;3.60;2.80;;;;;;;;;;5013874;28;20022;-84
2022/05/30 06:02:23;;;;;;;7.50;3.10;;;;;;;;;;5014941;28;20029;-85
2022/05/30 06:04:52;;;;;;;3.97;2.45;;;;;;;;;;5016183;28;20021;-85
2022/05/30 06:07:18;;;;;;;7.57;2.83;;;;;;;;;;5015525;28;20084;-85
2022/05/30 06:12:43;;;;;;;4.80;2.23;;;;;;;;;;4992247;28;20401;-86
2022/05/30 06:15:30;;;;;;;3.15;2.35;;;;;;;;;;5022680;28;20026;-86
2022/05/30 06:18:29;;;;;;;;;;;;;;;;;;;;;
2022/05/30 06:21:07;;;;;;;4.95;1.85;;;;;;;;;;4993117;28;20030;-87
2022/05/30 06:23:57;;;;;;;4.75;2.15;;;;;;;;;;4993659;28;20400;-86
2022/05/30 06:29:23;;;;;;;4.68;2.17;;;;;;;;;;4995589;28;20041;-86
2022/05/30 06:34:51;;;;;;;2.15;1.70;;;;;;;;;;4982266;28;20030;-87
2022/05/30 06:37:33;;;;;;;5.13;1.75;;;;;;;;;;4994158;28;20022;-87
2022/05/30 06:40:05;;;;;;;2.08;1.85;;;;;;;;;;4994470;28;20026;-87
2022/05/30 06:42:57;;;;;;;7.00;1.67;;;;;;;;;;5009251;28;20118;-87
2022/05/30 06:45:26;;;;;;;4.07;1.65;;;;;;;;;;4987876;28;20447;-87
2022/05/30 06:47:58;;;;;;;1.85;1.73;;;;;;;;;;4992641;28;20064;-87
2022/05/30 06:50:28;;;;;;;3.03;1.70;;;;;;;;;;4992033;28;20018;-87
2022/05/30 06:52:54;;;;;;;2.63;1.38;;;;;;;;;;4991894;28;20109;-87
2022/05/30 06:55:23;;;;;;;1.50;1.20;;;;;;;;;;4993720;28;20074;-87
2022/05/30 07:00:48;;;;;;;3.47;1.45;;;;;;;;;;4993362;28;20157;-87
2022/05/30 07:03:26;;;;;;;3.33;1.55;;;;;;;;;;4993065;28;20074;-86
2022/05/30 07:06:07;;;;;;;2.08;1.30;;;;;;;;;;4992003;28;20041;-87
2022/05/30 07:08:39;;;;;;;3.63;1.08;;;;;;;;;;4991812;28;20058;-86
2022/05/30 07:11:08;;;;;;;1.98;1.20;;;;;;;;;;4993192;28;20046;-87
2022/05/30 07:13:44;;;;;;;1.40;1.13;;;;;;;;;;4991733;28;20054;-86
2022/05/30 07:16:34;;;;;;;4.05;1.15;;;;;;;;;;4993519;28;20046;-87
2022/05/30 07:19:10;;;;;;;4.05;1.27;;;;;;;;;;4990433;28;20396;-86
2022/05/30 07:21:47;;;;;;;1.80;1.15;;;;;;;;;;4991124;28;20018;-87
2022/05/30 07:24:22;;;;;;;1.23;1.13;;;;;;;;;;4992825;28;20042;-87
2022/05/30 07:27:09;;;;;;;2.50;1.02;;;;;;;;;;4991970;28;20033;-86
2022/05/30 07:29:58;;;;;;;2.63;1.30;;;;;;;;;;4993385;28;20056;-87
2022/05/30 07:32:29;;;;;;;1.77;1.05;;;;;;;;;;4992901;28;20030;-87
2022/05/30 07:35:08;;;;;;;1.42;1.33;;;;;;;;;;4992973;28;20046;-86
2022/05/30 07:37:45;;;;;;;3.40;1.83;;;;;;;;;;4991787;28;20050;-86
2022/05/30 07:42:57;;;;;;;3.63;1.50;;;;;;;;;;4997402;28;20141;-85
2022/05/30 07:45:40;;;;;;;3.95;1.52;;;;;;;;;;4999698;28;20026;-88
2022/05/30 07:48:09;;;;;;;3.42;1.25;;;;;;;;;;4998996;28;20023;-83
2022/05/30 07:50:59;;;;;;;2.55;1.50;;;;;;;;;;4999426;28;20508;-88
2022/05/30 07:53:32;;;;;;;2.38;1.45;;;;;;;;;;4996876;28;20050;-83
2022/05/30 07:56:10;;;;;;;3.08;1.30;;;;;;;;;;4990278;28;20435;-86
2022/05/30 07:58:41;;;;;;;4.05;1.83;;;;;;;;;;4979208;28;20576;-85
2022/05/30 08:01:14;;;;;;;4.28;1.65;;;;;;;;;;4981158;28;20026;-83
2022/05/30 08:03:54;;;;;;;1.48;1.02;;;;;;;;;;4978807;28;20061;-86
2022/05/30 08:06:37;;;;;;;2.88;1.45;;;;;;;;;;4976395;28;20039;-87
2022/05/30 08:09:09;;;;;;;2.42;1.75;;;;;;;;;;4979253;28;20038;-86
2022/05/30 08:11:37;;;;;;;4.53;1.40;;;;;;;;;;4979601;28;20042;-86
2022/05/30 08:14:22;;;;;;;4.05;1.30;;;;;;;;;;4997377;28;20045;-85
2022/05/30 08:17:04;;;;;;;4.80;1.48;;;;;;;;;;4998019;28;20031;-86
2022/05/30 08:19:33;;;;;;;1.30;1.20;;;;;;;;;;5010366;28;20573;-85
2022/05/30 08:22:11;;;;;;;3.58;1.27;;;;;;;;;;5018208;28;20493;-86
2022/05/30 08:24:38;;;;;;;5.28;1.42;;;;;;;;;;5015770;28;20455;-86
2022/05/30 08:27:23;;;;;;;4.32;1.77;;;;;;;;;;5018421;28;20120;-85
2022/05/30 08:29:51;;;;;;;3.45;1.25;;;;;;;;;;5017472;28;20044;-86
2022/05/30 08:32:20;;;;;;;3.72;1.27;;;;;;;;;;5018705;28;20097;-86
2022/05/30 08:34:52;;;;;;;1.20;1.10;;;;;;;;;;5016744;28;20038;-85
2022/05/30 08:37:18;;;;;;;4.78;1.50;;;;;;;;;;5016889;28;20026;-84
2022/05/30 08:42:36;;;;;;;2.75;1.10;;;;;;;;;;4988768;28;20046;-83
2022/05/30 08:45:04;;;;;;;3.75;1.40;;;;;;;;;;4980346;28;20027;-85
2022/05/30 08:47:42;;;;;;;2.00;1.30;;;;;;;;;;4980690;28;20404;-86
2022/05/30 08:50:22;;;;;;;2.50;1.20;;;;;;;;;;4976411;28;20026;-86
2022/05/30 08:52:51;;;;;;;4.35;1.20;;;;;;;;;;4976530;28;20029;-86
2022/05/30 08:55:28;;;;;;;2.17;1.25;;;;;;;;;;4978312;28;20046;-85
2022/05/30 08:58:02;;;;;;;1.10;0.98;;;;;;;;;;4977572;28;20057;-87
2022/05/30 09:00:41;;;;;;;1.30;1.20;;;;;;;;;;4977246;28;20489;-87
2022/05/30 09:03:23;;;;;;;3.42;1.38;;;;;;;;;;4976861;28;20034;-87
2022/05/30 09:05:51;;;;;;;1.35;1.10;;;;;;;;;;4976562;28;20093;-85
2022/05/30 09:08:29;;;;;;;2.08;1.20;;;;;;;;;;4978280;28;20054;-86
2022/05/30 09:10:59;;;;;;;1.85;0.95;;;;;;;;;;4976826;28;20055;-86
2022/05/30 09:13:37;;;;;;;4.07;1.10;;;;;;;;;;4978588;28;20110;-87
2022/05/30 09:16:07;;;;;;;2.30;1.20;;;;;;;;;;4978432;28;20019;-86
2022/05/30 09:18:36;;;;;;;2.13;1.42;;;;;;;;;;4982715;28;20029;-86
2022/05/30 09:21:05;;;;;;;2.25;1.20;;;;;;;;;;5017106;28;20026;-86
2022/05/30 09:23:32;;;;;;;3.60;1.23;;;;;;;;;;5016100;28;20060;-85
2022/05/30 09:26:03;;;;;;;1.80;1.05;;;;;;;;;;5019260;28;20033;-86
2022/05/30 09:28:32;;;;;;;1.30;1.20;;;;;;;;;;5018038;28;20099;-86
2022/05/30 09:31:15;;;;;;;1.23;1.10;;;;;;;;;;5016261;28;20177;-85
2022/05/30 09:33:43;;;;;;;1.13;1.02;;;;;;;;;;5018192;28;20101;-86
2022/05/30 09:36:15;;;;;;;1.65;1.02;;;;;;;;;;5018147;28;20018;-85
2022/05/30 09:38:50;;;;;;;1.65;1.00;;;;;;;;;;5018335;28;20026;-86
2022/05/30 09:41:16;;;;;;;2.17;1.00;;;;;;;;;;5015756;28;20043;-86
2022/05/30 09:44:01;;;;;;;4.10;1.30;;;;;;;;;;5016765;28;20476;-86
2022/05/30 09:46:35;;;;;;;1.35;0.90;;;;;;;;;;5016867;28;20053;-86
2022/05/30 09:49:03;;;;;;;2.28;1.23;;;;;;;;;;5016200;28;20026;-86
2022/05/30 09:51:34;;;;;;;2.20;0.98;;;;;;;;;;5016687;28;20043;-86
2022/05/30 09:54:01;;;;;;;2.53;1.20;;;;;;;;;;5016645;28;20037;-84
2022/05/30 09:56:28;;;;;;;2.28;0.90;;;;;;;;;;5014632;28;20034;-86
2022/05/30 09:59:02;;;;;;;1.33;1.13;;;;;;;;;;5016331;28;20496;-86
2022/05/30 10:01:30;;;;;;;1.40;0.98;;;;;;;;;;5014604;28;20471;-86
2022/05/30 10:04:12;;;;;;;2.30;1.27;;;;;;;;;;5017036;28;20033;-84
2022/05/30 10:06:38;;;;;;;2.85;1.40;;;;;;;;;;5016481;28;20034;-84
2022/05/30 10:09:08;;;;;;;1.63;1.05;;;;;;;;;;5017350;28;20124;-85
2022/05/30 10:11:35;;;;;;;1.35;0.93;;;;;;;;;;5014229;28;20018;-85
2022/05/30 10:14:17;;;;;;;4.88;1.20;;;;;;;;;;5014779;28;20064;-84
2022/05/30 10:16:45;;;;;;;4.28;1.10;;;;;;;;;;5014108;28;20040;-86
2022/05/30 10:19:20;;;;;;;3.90;1.42;;;;;;;;;;5021381;28;20109;-86
2022/05/30 10:28:14;;;;;;;1.00;0.90;;;;;;;;;;5020203;28;20040;-85
2022/05/30 10:30:29;;;;;;;3.70;1.38;;;;;;;;;;5020370;28;20056;-83
2022/05/30 10:33:13;;;;;;;1.00;0.90;;;;;;;;;;5018277;28;20072;-85
2022/05/30 10:35:54;;;;;;;2.45;1.10;;;;;;;;;;5018820;28;20032;-86
2022/05/30 10:38:22;;;;;;;0.90;0.85;;;;;;;;;;5018187;28;20121;-87
2022/05/30 10:41:03;;;;;;;3.03;1.20;;;;;;;;;;5017440;28;20464;-86
2022/05/30 10:43:29;;;;;;;;;;;;;;;;;;5014164;28;20492;-86
2022/05/30 10:45:59;;;;;;;2.35;0.90;;;;;;;;;;5015103;28;19962;-85
2022/05/30 10:48:28;;;;;;;3.33;1.05;;;;;;;;;;5012179;28;20033;-86
2022/05/30 10:50:57;;;;;;;1.98;0.93;;;;;;;;;;5013491;28;20027;-86
2022/05/30 10:53:49;;;;;;;1.35;1.00;;;;;;;;;;5014061;28;20022;-86
2022/05/30 10:56:17;;;;;;;1.23;0.70;;;;;;;;;;4985303;28;20096;-86
2022/05/30 10:58:50;;;;;;;2.22;0.73;;;;;;;;;;5014920;28;20022;-86
2022/05/30 11:01:25;;;;;;;1.08;0.80;;;;;;;;;;5015492;28;20026;-86
2022/05/30 11:03:56;;;;;;;1.20;0.90;;;;;;;;;;5015832;28;20089;-86
2022/05/30 11:06:26;;;;;;;1.30;0.77;;;;;;;;;;5014366;28;20040;-86
2022/05/30 11:09:12;;;;;;;1.27;1.00;;;;;;;;;;5014700;28;20053;-85
2022/05/30 11:11:44;;;;;;;1.02;0.90;;;;;;;;;;5014057;28;20026;-86
2022/05/30 11:14:16;;;;;;;3.75;1.00;;;;;;;;;;5017612;28;20487;-84
2022/05/30 11:17:00;;;;;;;2.15;0.80;;;;;;;;;;5019773;28;20069;-86
2022/05/30 11:19:33;;;;;;;1.63;0.65;;;;;;;;;;5016235;28;20022;-84
2022/05/30 11:22:00;;;;;;;1.23;0.88;;;;;;;;;;5016327;28;20021;-87
2022/05/30 11:24:27;;;;;;;2.30;0.95;;;;;;;;;;5016595;28;20060;-86
2022/05/30 11:27:05;;;;;;;1.58;0.80;;;;;;;;;;5018573;28;20033;-86
2022/05/30 11:29:46;;;;;;;2.20;0.80;;;;;;;;;;5017028;28;20029;-86
2022/05/30 11:32:25;;;;;;;1.05;0.70;;;;;;;;;;5018787;28;20046;-87
2022/05/30 11:35:00;;;;;;;2.28;0.90;;;;;;;;;;5018136;28;20034;-87
2022/05/30 11:37:51;;;;;;;2.35;0.93;;;;;;;;;;5018854;28;20071;-87
2022/05/30 11:40:35;;;;;;;1.50;0.80;;;;;;;;;;5016410;28;20559;-86
2022/05/30 11:43:10;;;;;;;2.35;0.90;;;;;;;;;;5018594;28;20063;-86
2022/05/30 11:45:46;;;;;;;3.72;1.15;;;;;;;;;;5017218;28;20365;-86
2022/05/30 11:48:21;;;;;;;1.33;0.90;;;;;;;;;;5018074;28;20026;-86
2022/05/30 11:51:01;;;;;;;0.80;0.70;;;;;;;;;;5019413;28;20032;-87
2022/05/30 11:53:30;;;;;;;2.63;0.68;;;;;;;;;;5017174;28;20555;-86
2022/05/30 11:56:02;;;;;;;2.35;0.98;;;;;;;;;;5017852;28;20479;-84
2022/05/30 11:58:49;;;;;;;1.27;0.93;;;;;;;;;;5016952;28;20034;-86
2022/05/30 12:01:16;;;;;;;3.45;0.80;;;;;;;;;;5015348;28;20068;-86
2022/05/30 12:04:14;;;;;;;0.82;0.80;;;;;;;;;;5016051;28;20037;-86
2022/05/30 12:06:43;;;;;;;0.85;0.80;;;;;;;;;;5017010;28;20462;-87
2022/05/30 12:09:18;;;;;;;1.48;1.00;;;;;;;;;;5017886;28;20026;-86
2022/05/30 12:11:44;;;;;;;2.58;0.70;;;;;;;;;;5040365;23;20046;-85
2022/05/30 12:14:19;;;;;;;2.92;1.20;;;;;;;;;;5006261;28;20075;-84
2022/05/30 12:16:50;;;;;;;0.90;0.80;;;;;;;;;;5001394;28;20022;-82
2022/05/30 12:25:01;;;;;;;1.65;0.65;;;;;;;;;;4995133;28;20134;-85
2022/05/30 12:27:35;;;;;;;3.08;0.60;;;;;;;;;;4995581;28;20022;-85
2022/05/30 12:30:02;;;;;;;0.57;0.57;;;;;;;;;;5029457;28;20033;-83
2022/05/30 12:32:36;;;;;;;1.25;0.80;;;;;;;;;;5033542;28;20052;-84
2022/05/30 12:35:11;;;;;;;0.80;0.80;;;;;;;;;;5033721;28;20048;-82
2022/05/30 12:37:44;;;;;;;1.55;0.80;;;;;;;;;;5034660;28;20029;-86
2022/05/30 12:40:12;;;;;;;2.53;0.70;;;;;;;;;;5034469;28;20040;-85
2022/05/30 12:42:42;;;;;;;1.85;0.65;;;;;;;;;;5034807;28;20585;-83
2022/05/30 12:45:18;;;;;;;1.83;0.80;;;;;;;;;;5033746;28;20029;-85
2022/05/30 12:47:52;;;;;;;1.90;0.80;;;;;;;;;;5014772;28;20033;-85
2022/05/30 12:50:18;;;;;;;2.40;1.00;;;;;;;;;;5013329;28;20021;-85
2022/05/30 12:52:55;;;;;;;0.90;0.60;;;;;;;;;;5015062;28;20037;-85
2022/05/30 12:55:33;;;;;;;1.70;0.70;;;;;;;;;;5013532;28;20080;-83
2022/05/30 12:57:59;;;;;;;2.38;0.90;;;;;;;;;;5014411;28;20034;-85
2022/05/30 13:00:41;;;;;;;1.10;0.70;;;;;;;;;;5014215;28;20503;-85
2022/05/30 13:03:25;;;;;;;0.80;0.70;;;;;;;;;;5014596;28;20046;-84
2022/05/30 13:06:00;;;;;;;1.75;0.90;;;;;;;;;;5014318;28;20030;-85
2022/05/30 13:08:45;;;;;;;1.00;0.77;;;;;;;;;;5014316;28;20030;-82
2022/05/30 13:11:34;;;;;;;2.85;0.90;;;;;;;;;;5013886;28;20522;-85
2022/05/30 13:14:18;;;;;;;1.13;0.68;;;;;;;;;;5004332;28;20411;-85
2022/05/30 13:16:45;;;;;;;5.95;0.82;;;;;;;;;;5014827;28;20022;-84
2022/05/30 13:19:12;;;;;;;0.88;0.70;;;;;;;;;;5022055;28;20030;-85
2022/05/30 13:21:40;;;;;;;1.02;0.80;;;;;;;;;;5013474;28;20060;-84
2022/05/30 13:24:26;;;;;;;1.13;0.63;;;;;;;;;;5014274;28;20280;-83
2022/05/30 13:26:52;;;;;;;2.22;1.02;;;;;;;;;;5000717;28;20030;-85
2022/05/30 13:29:18;;;;;;;1.33;0.80;;;;;;;;;;5012891;28;20187;-85
2022/05/30 13:31:52;;;;;;;3.25;0.80;;;;;;;;;;4995726;28;20080;-85
2022/05/30 13:34:22;;;;;;;0.95;0.60;;;;;;;;;;4993442;28;20034;-85
2022/05/30 13:36:49;;;;;;;2.10;0.83;;;;;;;;;;4996138;28;20073;-82
2022/05/30 13:39:15;;;;;;;10.35;0.77;;;;;;;;;;5005481;28;20034;-85
2022/05/30 13:41:41;;;;;;;4.55;0.70;;;;;;;;;;4993706;28;20076;-85
2022/05/30 13:44:11;;;;;;;2.85;0.90;;;;;;;;;;4993619;28;20034;-85
2022/05/30 13:46:49;;;;;;;0.70;0.60;;;;;;;;;;4994646;28;20089;-83
2022/05/30 13:49:28;;;;;;;1.00;0.60;;;;;;;;;;4993530;28;20493;-83
2022/05/30 13:51:54;;;;;;;3.63;0.55;;;;;;;;;;4994443;28;20026;-84
2022/05/30 13:54:22;;;;;;;1.95;1.05;;;;;;;;;;4994616;28;20233;-85
2022/05/30 13:56:52;;;;;;;3.35;0.70;;;;;;;;;;4994592;28;20018;-85
2022/05/30 13:59:35;;;;;;;1.00;0.80;;;;;;;;;;4994722;28;20411;-85
2022/05/30 14:02:04;;;;;;;1.67;0.80;;;;;;;;;;4993635;28;20049;-85
2022/05/30 14:04:50;;;;;;;1.98;0.70;;;;;;;;;;4994755;28;20050;-84
2022/05/30 14:07:28;;;;;;;0.77;0.73;;;;;;;;;;4993824;28;20088;-85
2022/05/30 14:09:59;;;;;;;1.55;0.63;;;;;;;;;;4994456;28;20388;-85
2022/05/30 14:12:31;;;;;;;1.27;0.70;;;;;;;;;;4992911;28;20475;-84
2022/05/30 14:14:56;;;;;;;;;;;;;;;;;;4995080;28;20030;-86
2022/05/30 14:17:27;;;;;;;0.60;0.60;;;;;;;;;;4993454;28;19906;-84
2022/05/30 14:20:11;;;;;;;0.80;0.70;;;;;;;;;;5015614;28;20033;-85
2022/05/30 14:22:37;;;;;;;1.25;0.50;;;;;;;;;;5014077;28;20033;-85
2022/05/30 14:25:04;;;;;;;1.33;0.60;;;;;;;;;;5012440;28;20030;-85
2022/05/30 14:27:32;;;;;;;1.00;0.73;;;;;;;;;;5013558;28;20030;-85
2022/05/30 14:29:58;;;;;;;0.80;0.60;;;;;;;;;;5011202;28;20030;-86
2022/05/30 14:32:32;;;;;;;1.10;0.70;;;;;;;;;;4993905;28;20018;-85
2022/05/30 14:35:04;;;;;;;0.80;0.60;;;;;;;;;;4995078;28;20507;-85
2022/05/30 14:37:30;;;;;;;1.00;0.50;;;;;;;;;;4994061;28;20030;-85
2022/05/30 14:40:00;;;;;;;1.20;0.70;;;;;;;;;;4994976;28;20114;-84
2022/05/30 14:42:31;;;;;;;3.30;0.70;;;;;;;;;;4994951;28;20035;-85
2022/05/30 14:45:03;;;;;;;2.05;1.25;;;;;;;;;;4995566;28;20086;-86
2022/05/30 14:47:34;;;;;;;0.77;0.47;;;;;;;;;;4993336;28;20125;-85
2022/05/30 14:50:05;;;;;;;1.88;0.50;;;;;;;;;;4992511;28;20113;-85
2022/05/30 14:52:46;;;;;;;2.15;0.70;;;;;;;;;;4993595;28;20037;-82
2022/05/30 14:55:12;;;;;;;1.70;0.85;;;;;;;;;;4994910;28;20023;-84
2022/05/30 14:57:45;;;;;;;1.45;0.60;;;;;;;;;;4993256;28;20520;-84
2022/05/30 15:00:30;;;;;;;0.98;0.50;;;;;;;;;;4994029;28;20027;-85
2022/05/30 15:05:40;;;;;;;1.00;0.60;;;;;;;;;;4994922;28;20081;-86
2022/05/30 15:08:07;;;;;;;1.20;0.50;;;;;;;;;;4994164;28;20469;-87
2022/05/30 15:10:33;;;;;;;2.35;0.70;;;;;;;;;;4994052;28;20031;-86
2022/05/30 15:12:59;;;;;;;0.65;0.50;;;;;;;;;;4999867;28;20570;-86
2022/05/30 15:15:25;;;;;;;0.57;0.52;;;;;;;;;;5013656;28;20034;-86
2022/05/30 15:17:51;;;;;;;0.75;0.63;;;;;;;;;;5010243;28;20146;-83
2022/05/30 15:20:19;;;;;;;0.50;0.50;;;;;;;;;;5017655;28;20620;-86
2022/05/30 15:22:46;;;;;;;1.65;0.47;;;;;;;;;;5014032;28;20476;-86
2022/05/30 15:25:12;;;;;;;1.33;0.70;;;;;;;;;;5012467;28;20033;-85
2022/05/30 15:27:38;;;;;;;0.98;0.43;;;;;;;;;;5012873;28;20033;-85
2022/05/30 15:30:08;;;;;;;2.15;0.70;;;;;;;;;;5013653;28;20033;-84
2022/05/30 15:32:34;;;;;;;0.65;0.50;;;;;;;;;;5014034;28;20018;-86
2022/05/30 15:35:01;;;;;;;0.70;0.57;;;;;;;;;;5013684;28;20033;-86
2022/05/30 15:37:27;;;;;;;1.30;0.50;;;;;;;;;;5012641;28;20575;-85
2022/05/30 15:39:54;;;;;;;0.85;0.60;;;;;;;;;;5012093;28;20133;-86
2022/05/30 15:42:23;;;;;;;1.77;0.50;;;;;;;;;;5013071;28;20052;-86
2022/05/30 15:44:49;;;;;;;0.50;0.50;;;;;;;;;;5013040;28;20040;-85